Time;durP1;ratioP1;P1;durP2;ratioP2;P2;SDS_P1;SDS_P2;PMS_P1;PMS_P2;Temp;Humidity;BMP_temperature;BMP_pressure;BME280_temperature;BME280_humidity;BME280_pressure;Samples;Min_cycle;Max_cycle;Signal;HPM_P1;HPM_P2
2022/03/05 00:02:23;;;;;;;41.17;21.30;;;;;;;0.06;94.66;101854.47;5075276;28;20016;-67
2022/03/05 00:04:49;;;;;;;38.53;21.27;;;;;;;-0.03;97.63;101854.78;5075518;28;20395;-66
2022/03/05 00:07:15;;;;;;;39.95;21.05;;;;;;;0.02;98.15;101851.59;5075401;28;20033;-66
2022/03/05 00:09:40;;;;;;;40.03;21.98;;;;;;;-0.05;98.20;101845.97;5075842;28;20028;-66
2022/03/05 00:12:06;;;;;;;39.72;21.45;;;;;;;-0.09;99.08;101856.97;5075237;28;20467;-65
2022/03/05 00:14:31;;;;;;;40.40;21.73;;;;;;;-0.10;99.43;101857.81;5075035;28;20016;-66
2022/03/05 00:16:57;;;;;;;40.13;22.48;;;;;;;-0.19;100.00;101858.13;5075536;28;20490;-66
2022/03/05 00:19:22;;;;;;;39.70;21.88;;;;;;;-0.13;100.00;101860.22;5075122;28;20387;-67
2022/03/05 00:21:47;;;;;;;41.97;23.45;;;;;;;-0.16;100.00;101860.03;5073702;28;20037;-70
2022/03/05 00:24:13;;;;;;;41.55;23.10;;;;;;;-0.17;100.00;101868.59;5075422;28;20020;-67
2022/03/05 00:26:38;;;;;;;40.45;22.80;;;;;;;-0.12;100.00;101867.19;5074964;28;20024;-66
2022/03/05 00:29:04;;;;;;;42.00;23.13;;;;;;;-0.07;100.00;101865.78;5074892;28;20033;-66
2022/03/05 00:31:29;;;;;;;42.35;23.58;;;;;;;-0.07;100.00;101867.50;5074813;28;20078;-66
2022/03/05 00:33:55;;;;;;;40.67;22.65;;;;;;;-0.05;100.00;101864.19;5073916;28;20518;-66
2022/03/05 00:36:20;;;;;;;42.80;24.42;;;;;;;-0.08;100.00;101864.00;5074837;28;20155;-66
2022/03/05 00:38:46;;;;;;;41.17;23.33;;;;;;;-0.22;100.00;101865.72;5075045;28;20089;-67
2022/03/05 00:41:11;;;;;;;43.25;24.58;;;;;;;-0.30;100.00;101859.13;5074973;28;20478;-66
2022/03/05 00:43:36;;;;;;;42.78;24.33;;;;;;;-0.44;100.00;101858.22;5074857;28;20486;-66
2022/03/05 00:46:02;;;;;;;44.70;25.00;;;;;;;-0.50;100.00;101863.00;5074546;28;20501;-66
2022/03/05 00:48:27;;;;;;;43.22;25.40;;;;;;;-0.53;100.00;101855.91;5074848;28;20024;-66
2022/03/05 00:50:52;;;;;;;45.47;25.50;;;;;;;-0.63;100.00;101858.69;5074753;28;20035;-66
2022/03/05 00:53:18;;;;;;;43.83;25.35;;;;;;;-0.77;100.00;101852.63;5074596;28;20028;-68
2022/03/05 00:55:44;;;;;;;45.45;25.67;;;;;;;-0.76;100.00;101859.63;5074546;28;20469;-66
2022/03/05 00:58:09;;;;;;;46.17;26.30;;;;;;;-0.84;100.00;101859.91;5074694;28;20384;-66
2022/03/05 01:00:35;;;;;;;44.08;25.55;;;;;;;-0.88;100.00;101858.78;5074210;28;20060;-66
2022/03/05 01:03:00;;;;;;;46.53;27.05;;;;;;;-0.82;100.00;101864.38;5074122;28;20077;-66
2022/03/05 01:05:26;;;;;;;47.35;27.20;;;;;;;-0.80;100.00;101856.69;5074344;28;20029;-65
2022/03/05 01:07:51;;;;;;;46.03;26.08;;;;;;;-0.76;100.00;101853.50;5074522;28;20028;-65
2022/03/05 01:10:17;;;;;;;47.60;26.77;;;;;;;-0.85;100.00;101861.56;5074248;28;20032;-66
2022/03/05 01:12:42;;;;;;;48.53;27.58;;;;;;;-0.83;100.00;101862.59;5074234;28;20028;-66
2022/03/05 01:15:08;;;;;;;48.72;27.23;;;;;;;-0.81;100.00;101861.00;5074082;28;20051;-65
2022/03/05 01:17:34;;;;;;;49.50;28.65;;;;;;;-0.84;100.00;101858.19;5073721;28;20047;-66
2022/03/05 01:19:59;;;;;;;48.25;28.30;;;;;;;-0.91;100.00;101851.69;5074420;28;20452;-66
2022/03/05 01:22:25;;;;;;;51.38;28.58;;;;;;;-0.99;100.00;101851.97;5073875;28;20027;-66
2022/03/05 01:24:50;;;;;;;46.70;27.40;;;;;;;-1.12;100.00;101853.75;5074142;28;20025;-70
2022/03/05 01:27:15;;;;;;;46.95;27.38;;;;;;;-1.20;100.00;101857.50;5074086;28;20129;-70
2022/03/05 01:29:41;;;;;;;48.10;28.50;;;;;;;-1.23;100.00;101855.59;5073669;28;20035;-71
2022/03/05 01:32:07;;;;;;;49.67;28.88;;;;;;;-1.21;100.00;101853.09;5074026;28;20060;-71
2022/03/05 01:34:32;;;;;;;48.83;28.63;;;;;;;-1.23;100.00;101850.41;5073591;28;20051;-72
2022/03/05 01:36:57;;;;;;;49.17;29.17;;;;;;;-1.21;100.00;101854.81;5073530;28;20025;-72
2022/03/05 01:39:23;;;;;;;49.75;28.38;;;;;;;-1.27;100.00;101856.22;5073621;28;20078;-72
2022/03/05 01:41:49;;;;;;;50.00;29.20;;;;;;;-1.38;100.00;101853.63;5073649;28;20044;-71
2022/03/05 01:44:15;;;;;;;48.58;28.08;;;;;;;-1.43;100.00;101850.75;5073497;28;20025;-66
2022/03/05 01:46:41;;;;;;;50.45;30.13;;;;;;;-1.46;100.00;101850.53;5065431;28;20030;-71
2022/03/05 01:49:09;;;;;;;51.78;29.90;;;;;;;-1.42;100.00;101850.84;5073261;28;20028;-71
2022/03/05 01:51:35;;;;;;;50.08;29.70;;;;;;;-1.32;100.00;101848.91;5073185;28;20039;-71
2022/03/05 01:54:01;;;;;;;50.20;30.42;;;;;;;-1.32;100.00;101848.91;5073547;28;20497;-71
2022/03/05 01:56:27;;;;;;;54.53;30.23;;;;;;;-1.29;100.00;101851.69;5073222;28;20090;-72
2022/03/05 01:58:54;;;;;;;50.25;30.08;;;;;;;-1.34;100.00;101847.88;5073056;28;20099;-66
2022/03/05 02:01:25;;;;;;;50.33;29.90;;;;;;;-1.39;100.00;101849.28;5073322;28;20512;-71
2022/03/05 02:03:51;;;;;;;52.30;30.80;;;;;;;-1.34;100.00;101850.47;5073009;28;20475;-70
2022/03/05 02:06:17;;;;;;;50.00;29.90;;;;;;;-1.32;100.00;101854.09;5073361;28;20024;-72
2022/03/05 02:08:44;;;;;;;52.33;30.48;;;;;;;-1.45;100.00;101850.63;5073128;28;20112;-71
2022/03/05 02:11:09;;;;;;;52.35;30.40;;;;;;;-1.45;100.00;101858.41;5072871;28;20033;-72
2022/03/05 02:13:36;;;;;;;52.50;31.13;;;;;;;-1.58;100.00;101856.66;5073181;28;20067;-72
2022/03/05 02:16:02;;;;;;;50.92;30.02;;;;;;;-1.61;100.00;101858.16;5073139;28;20025;-72
2022/03/05 02:18:27;;;;;;;51.92;31.02;;;;;;;-1.74;100.00;101861.56;5072667;28;20111;-72
2022/03/05 02:20:54;;;;;;;54.00;31.75;;;;;;;-1.79;100.00;101853.47;5072796;28;20074;-72
2022/03/05 02:23:19;;;;;;;52.33;30.85;;;;;;;-1.91;100.00;101851.72;5072913;28;20032;-72
2022/03/05 02:25:55;;;;;;;54.60;32.00;;;;;;;-2.00;100.00;101845.06;5072729;28;20044;-72
2022/03/05 02:28:23;;;;;;;52.78;32.33;;;;;;;-2.02;100.00;101845.78;5070036;28;20036;-72
2022/03/05 02:30:49;;;;;;;54.05;31.42;;;;;;;-2.09;100.00;101847.03;5072729;28;20021;-72
2022/03/05 02:33:15;;;;;;;55.55;33.25;;;;;;;-2.12;100.00;101837.31;5072582;28;20182;-72
2022/03/05 02:35:43;;;;;;;56.25;33.03;;;;;;;-2.14;100.00;101841.50;5072669;28;20459;-72
2022/03/05 02:38:14;;;;;;;55.63;32.00;;;;;;;-2.17;100.00;101828.34;5072718;28;20486;-72
2022/03/05 02:40:40;;;;;;;55.53;33.20;;;;;;;-2.27;100.00;101828.47;5072754;28;20025;-72
2022/03/05 02:43:06;;;;;;;55.83;33.15;;;;;;;-2.31;100.00;101836.81;5072720;28;20056;-72
2022/03/05 02:45:32;;;;;;;57.65;33.45;;;;;;;-2.23;100.00;101830.47;5072683;28;20082;-72
2022/03/05 02:47:58;;;;;;;55.53;31.95;;;;;;;-2.17;100.00;101832.59;5071077;28;20028;-72
2022/03/05 02:50:24;;;;;;;54.85;32.70;;;;;;;-2.18;100.00;101839.50;5072712;28;20058;-72
2022/03/05 02:52:49;;;;;;;56.92;33.75;;;;;;;-2.17;100.00;101835.19;5072819;28;20036;-67
2022/03/05 02:55:15;;;;;;;57.50;33.35;;;;;;;-2.15;100.00;101829.34;5072455;28;20394;-70
2022/03/05 02:57:40;;;;;;;57.20;33.47;;;;;;;-2.08;100.00;101842.72;5076546;28;20377;-71
2022/03/05 03:00:06;;;;;;;56.03;33.03;;;;;;;-2.11;100.00;101835.66;5078972;28;20448;-72
2022/03/05 03:02:31;;;;;;;55.90;32.33;;;;;;;-2.10;100.00;101842.63;5078857;28;20036;-73
2022/03/05 03:04:57;;;;;;;56.67;33.38;;;;;;;-2.15;100.00;101839.69;5079199;28;20064;-72
2022/03/05 03:07:22;;;;;;;55.70;33.15;;;;;;;-2.22;100.00;101833.97;5079163;28;20167;-69
2022/03/05 03:09:47;;;;;;;56.63;32.67;;;;;;;-2.21;100.00;101839.28;5079010;28;20433;-66
2022/03/05 03:12:13;;;;;;;57.22;33.55;;;;;;;-2.12;100.00;101849.38;5079100;28;20533;-69
2022/03/05 03:14:38;;;;;;;55.20;32.70;;;;;;;-2.23;100.00;101839.94;5079372;28;20020;-69
2022/03/05 03:17:03;;;;;;;54.13;31.75;;;;;;;-2.24;100.00;101838.13;5078949;28;20360;-69
2022/03/05 03:19:29;;;;;;;57.38;33.05;;;;;;;-2.32;100.00;101841.06;5078715;28;20515;-69
2022/03/05 03:21:55;;;;;;;56.45;32.70;;;;;;;-2.29;100.00;101840.41;5079096;28;20035;-66
2022/03/05 03:24:20;;;;;;;55.72;32.15;;;;;;;-2.30;100.00;101828.22;5078892;28;20078;-68
2022/03/05 03:26:45;;;;;;;58.35;33.42;;;;;;;-2.38;100.00;101830.28;5078989;28;20498;-71
2022/03/05 03:29:11;;;;;;;56.75;32.83;;;;;;;-2.48;100.00;101833.88;5078790;28;20036;-72
2022/03/05 03:31:37;;;;;;;56.13;32.65;;;;;;;-2.44;100.00;101835.00;5078914;28;20033;-69
2022/03/05 03:34:02;;;;;;;57.15;33.22;;;;;;;-2.40;100.00;101830.94;5078775;28;20427;-71
2022/03/05 03:36:28;;;;;;;56.33;33.38;;;;;;;-2.47;100.00;101829.63;5078746;28;20025;-66
2022/03/05 03:38:53;;;;;;;58.33;34.30;;;;;;;-2.51;100.00;101825.88;5078957;28;20099;-66
2022/03/05 03:41:19;;;;;;;57.45;33.08;;;;;;;-2.46;100.00;101826.25;5078874;28;20027;-66
2022/03/05 03:43:44;;;;;;;55.65;33.55;;;;;;;-2.58;100.00;101821.03;5078712;28;20479;-66
2022/03/05 03:46:10;;;;;;;57.45;33.20;;;;;;;-2.59;100.00;101829.63;5078630;28;20036;-66
2022/03/05 03:48:36;;;;;;;57.13;33.53;;;;;;;-2.62;100.00;101829.41;5078832;28;20028;-68
2022/03/05 03:51:01;;;;;;;58.50;33.88;;;;;;;-2.68;100.00;101836.69;5078366;28;20039;-67
2022/03/05 03:53:26;;;;;;;56.92;33.35;;;;;;;-2.65;100.00;101829.16;5078552;28;20505;-66
2022/03/05 03:55:52;;;;;;;57.05;33.17;;;;;;;-2.64;100.00;101836.13;5078676;28;20498;-67
2022/03/05 03:58:18;;;;;;;56.83;33.58;;;;;;;-2.68;100.00;101839.28;5078759;28;20463;-67
2022/03/05 04:00:44;;;;;;;58.92;34.00;;;;;;;-2.79;100.00;101835.91;5078573;28;20091;-68
2022/03/05 04:03:09;;;;;;;55.67;33.20;;;;;;;-2.82;100.00;101846.06;5078938;28;20059;-67
2022/03/05 04:05:34;;;;;;;56.75;33.40;;;;;;;-2.89;100.00;101831.75;5078285;28;20060;-66
2022/03/05 04:10:44;;;;;;;59.45;33.85;;;;;;;-2.94;100.00;101830.50;5071368;28;20094;-72
2022/03/05 04:13:09;;;;;;;59.80;34.10;;;;;;;-3.01;100.00;101829.13;5075255;28;20391;-71
2022/03/05 04:15:34;;;;;;;60.13;33.92;;;;;;;-3.02;100.00;101834.19;5073861;28;20052;-71
2022/03/05 04:18:00;;;;;;;62.60;34.38;;;;;;;-2.96;100.00;101838.94;5075727;28;20538;-72
2022/03/05 04:20:25;;;;;;;58.75;35.20;;;;;;;-3.02;100.00;101836.78;5074952;28;20095;-71
2022/03/05 04:22:51;;;;;;;58.15;33.97;;;;;;;-3.12;100.00;101836.88;5075138;28;20082;-72
2022/03/05 04:25:16;;;;;;;56.88;33.20;;;;;;;-3.08;100.00;101838.91;5075423;28;20032;-71
2022/03/05 04:27:41;;;;;;;59.65;34.22;;;;;;;-3.01;100.00;101838.59;5074930;28;20452;-71
2022/03/05 04:30:07;;;;;;;61.13;35.67;;;;;;;-3.03;100.00;101837.56;5075054;28;20384;-71
2022/03/05 04:32:33;;;;;;;58.80;34.40;;;;;;;-3.07;100.00;101833.88;5074881;28;20035;-71
2022/03/05 04:34:58;;;;;;;57.03;33.00;;;;;;;-3.15;100.00;101834.97;5074919;28;20118;-71
2022/03/05 04:37:24;;;;;;;59.28;34.10;;;;;;;-3.12;100.00;101840.38;5074751;28;20369;-72
2022/03/05 04:39:49;;;;;;;55.95;32.80;;;;;;;-3.24;100.00;101840.34;5074886;28;20021;-71
2022/03/05 04:42:14;;;;;;;60.58;33.70;;;;;;;-3.30;100.00;101847.63;5074644;28;20059;-71
2022/03/05 04:44:40;;;;;;;59.78;33.85;;;;;;;-3.35;100.00;101846.38;5074804;28;20029;-71
2022/03/05 04:47:05;;;;;;;59.50;33.53;;;;;;;-3.31;100.00;101847.53;5074609;28;20029;-72
2022/03/05 04:49:30;;;;;;;59.75;34.40;;;;;;;-3.31;100.00;101843.25;5074797;28;20463;-71
2022/03/05 04:51:56;;;;;;;61.85;34.42;;;;;;;-3.25;100.00;101847.97;5074525;28;20085;-70
2022/03/05 04:54:21;;;;;;;61.55;35.00;;;;;;;-3.32;100.00;101849.19;5074603;28;20103;-70
2022/03/05 04:56:46;;;;;;;62.58;35.78;;;;;;;-3.43;100.00;101855.25;5074392;28;20460;-71
2022/03/05 04:59:12;;;;;;;61.45;34.75;;;;;;;-3.41;100.00;101846.81;5074591;28;20372;-70
2022/03/05 05:01:37;;;;;;;61.53;34.13;;;;;;;-3.45;100.00;101854.22;5074623;28;20483;-70
2022/03/05 05:04:03;;;;;;;60.50;35.58;;;;;;;-3.37;100.00;101854.00;5074208;28;20017;-71
2022/03/05 05:06:28;;;;;;;63.30;34.85;;;;;;;-3.45;100.00;101855.13;5074301;28;20031;-71
2022/03/05 05:08:54;;;;;;;63.63;36.17;;;;;;;-3.43;100.00;101850.97;5074134;28;20035;-68
2022/03/05 05:11:19;;;;;;;62.67;36.03;;;;;;;-3.43;100.00;101855.25;5074320;28;20375;-70
2022/03/05 05:13:45;;;;;;;62.53;35.15;;;;;;;-3.50;100.00;101857.34;5074304;28;20402;-69
2022/03/05 05:16:10;;;;;;;64.70;35.53;;;;;;;-3.55;100.00;101856.09;5074072;28;20029;-70
2022/03/05 05:18:36;;;;;;;64.50;36.53;;;;;;;-3.53;100.00;101857.09;5074178;28;20031;-70
2022/03/05 05:21:02;;;;;;;62.67;35.05;;;;;;;-3.52;100.00;101855.44;5073582;28;20031;-70
2022/03/05 05:23:27;;;;;;;62.90;35.00;;;;;;;-3.60;100.00;101852.25;5073694;28;20035;-69
2022/03/05 05:25:52;;;;;;;62.55;35.88;;;;;;;-3.63;100.00;101862.34;5073985;28;20020;-70
2022/03/05 05:28:18;;;;;;;62.47;35.85;;;;;;;-3.66;100.00;101863.81;5073815;28;20498;-67
2022/03/05 05:30:43;;;;;;;65.85;37.15;;;;;;;-3.73;100.00;101867.56;5074052;28;20052;-67
2022/03/05 05:33:08;;;;;;;64.15;36.42;;;;;;;-3.77;100.00;101868.13;5073901;28;20055;-70
2022/03/05 05:35:34;;;;;;;64.05;35.38;;;;;;;-3.72;100.00;101866.81;5072307;28;20041;-70
2022/03/05 05:37:59;;;;;;;65.18;36.55;;;;;;;-3.75;100.00;101871.75;5073311;28;20494;-69
2022/03/05 05:40:25;;;;;;;70.13;37.65;;;;;;;-3.74;100.00;101876.09;5073743;28;20043;-68
2022/03/05 05:42:50;;;;;;;67.47;37.33;;;;;;;-3.77;100.00;101881.03;5073605;28;20050;-66
2022/03/05 05:45:16;;;;;;;65.88;36.15;;;;;;;-3.78;100.00;101884.44;5073324;28;20085;-68
2022/03/05 05:47:41;;;;;;;67.18;38.00;;;;;;;-3.84;100.00;101879.66;5072234;28;20037;-69
2022/03/05 05:50:07;;;;;;;70.80;38.22;;;;;;;-3.86;100.00;101881.22;5073580;28;20384;-73
2022/03/05 05:52:33;;;;;;;73.00;38.45;;;;;;;-3.90;100.00;101880.09;5073336;28;20041;-69
2022/03/05 05:54:58;;;;;;;66.43;36.20;;;;;;;-3.87;100.00;101882.03;5073074;28;20036;-68
2022/03/05 05:57:24;;;;;;;67.15;37.72;;;;;;;-3.85;100.00;101889.09;5073292;28;20114;-69
2022/03/05 05:59:49;;;;;;;67.82;37.45;;;;;;;-3.87;100.00;101885.50;5073255;28;20059;-68
2022/03/05 06:02:14;;;;;;;65.88;37.40;;;;;;;-3.88;100.00;101894.00;5073133;28;20117;-70
2022/03/05 06:04:40;;;;;;;68.15;37.72;;;;;;;-3.94;100.00;101893.53;5073177;28;20063;-71
2022/03/05 06:07:05;;;;;;;64.95;36.20;;;;;;;-3.91;100.00;101888.59;5073196;28;20039;-71
2022/03/05 06:09:31;;;;;;;69.50;37.72;;;;;;;-3.87;100.00;101885.50;5073146;28;20025;-71
2022/03/05 06:11:56;;;;;;;67.55;36.17;;;;;;;-3.89;100.00;101880.97;5072869;28;20068;-71
2022/03/05 06:14:22;;;;;;;68.03;37.30;;;;;;;-3.93;100.00;101884.09;5073234;28;20027;-68
2022/03/05 06:16:48;;;;;;;66.78;35.85;;;;;;;-3.97;100.00;101888.13;5072941;28;20039;-67
2022/03/05 06:19:13;;;;;;;66.78;35.78;;;;;;;-4.00;100.00;101886.97;5073255;28;20032;-67
2022/03/05 06:21:38;;;;;;;67.65;37.75;;;;;;;-3.94;100.00;101882.31;5073259;28;20048;-67
2022/03/05 06:24:04;;;;;;;69.07;37.42;;;;;;;-3.91;100.00;101887.72;5072654;28;20107;-68
2022/03/05 06:26:31;;;;;;;66.75;36.08;;;;;;;-3.92;100.00;101886.78;5072665;28;20032;-68
2022/03/05 06:28:58;;;;;;;67.63;36.70;;;;;;;-3.94;100.00;101888.38;5072896;28;20090;-69
2022/03/05 06:31:24;;;;;;;67.35;36.80;;;;;;;-3.95;100.00;101896.00;5071325;28;20045;-68
2022/03/05 06:33:49;;;;;;;68.13;36.72;;;;;;;-3.94;100.00;101895.22;5072468;28;20036;-68
2022/03/05 06:36:14;;;;;;;67.68;36.83;;;;;;;-3.97;100.00;101890.72;5072921;28;20039;-67
2022/03/05 06:38:40;;;;;;;68.00;37.30;;;;;;;-3.97;100.00;101892.41;5072878;28;20375;-67
2022/03/05 06:41:05;;;;;;;70.20;37.30;;;;;;;-3.96;100.00;101904.53;5072648;28;20489;-70
2022/03/05 06:43:31;;;;;;;67.45;37.60;;;;;;;-3.89;100.00;101905.16;5072720;28;20433;-72
2022/03/05 06:45:56;;;;;;;67.50;36.28;;;;;;;-3.85;100.00;101906.28;5072384;28;20361;-73
2022/03/05 06:48:21;;;;;;;71.45;37.85;;;;;;;-3.80;100.00;101892.06;5072759;28;20475;-72
2022/03/05 06:50:47;;;;;;;69.65;37.80;;;;;;;-3.71;100.00;101891.88;5072524;28;20483;-67
2022/03/05 06:53:12;;;;;;;70.95;38.38;;;;;;;-3.63;100.00;101890.78;5072736;28;20482;-67
2022/03/05 06:55:37;;;;;;;73.47;37.85;;;;;;;-3.60;100.00;101898.78;5072531;28;20024;-73
2022/03/05 06:58:03;;;;;;;71.72;37.03;;;;;;;-3.52;100.00;101895.13;5072319;28;20460;-73
2022/03/05 07:00:28;;;;;;;73.43;39.20;;;;;;;-3.51;100.00;101904.69;5072147;28;20055;-73
2022/03/05 07:02:54;;;;;;;72.32;37.70;;;;;;;-3.49;100.00;101902.22;5072677;28;20037;-73
2022/03/05 07:05:19;;;;;;;70.57;38.47;;;;;;;-3.47;100.00;101904.91;5072272;28;20020;-70
2022/03/05 07:07:45;;;;;;;74.85;38.97;;;;;;;-3.40;100.00;101915.84;5072263;28;20032;-71
2022/03/05 07:10:11;;;;;;;79.13;42.72;;;;;;;-3.41;100.00;101923.50;5072527;28;20028;-71
2022/03/05 07:12:36;;;;;;;81.53;44.30;;;;;;;-3.36;100.00;101917.91;5072067;28;20064;-71
2022/03/05 07:15:02;;;;;;;74.40;42.00;;;;;;;-3.27;100.00;101912.53;5072636;28;20030;-71
2022/03/05 07:17:27;;;;;;;77.75;43.17;;;;;;;-3.19;100.00;101919.22;5072339;28;20382;-71
2022/03/05 07:19:56;;;;;;;78.85;42.88;;;;;;;-3.09;100.00;101920.78;5072234;28;20055;-71
2022/03/05 07:22:22;;;;;;;82.85;44.35;;;;;;;-2.95;100.00;101927.03;5072564;28;20091;-71
2022/03/05 07:24:47;;;;;;;78.97;43.03;;;;;;;-2.87;100.00;101931.13;5072192;28;20056;-71
2022/03/05 07:27:13;;;;;;;78.55;43.22;;;;;;;-2.73;100.00;101933.84;5072015;28;20059;-71
2022/03/05 07:29:38;;;;;;;74.30;40.80;;;;;;;-2.64;100.00;101929.34;5072316;28;20021;-71
2022/03/05 07:32:04;;;;;;;71.18;40.00;;;;;;;-2.57;100.00;101934.19;5072039;28;20025;-71
2022/03/05 07:34:30;;;;;;;70.53;39.97;;;;;;;-2.47;100.00;101936.69;5072073;28;20025;-72
2022/03/05 07:36:56;;;;;;;69.32;37.63;;;;;;;-2.35;100.00;101923.75;5072141;28;20028;-71
2022/03/05 07:39:21;;;;;;;72.43;40.78;;;;;;;-2.23;100.00;101923.75;5072021;28;20032;-71
2022/03/05 07:41:47;;;;;;;67.80;37.42;;;;;;;-2.07;100.00;101928.34;5072004;28;20021;-68
2022/03/05 07:44:12;;;;;;;65.97;36.42;;;;;;;-1.94;100.00;101924.97;5074996;28;20073;-74
2022/03/05 07:46:37;;;;;;;71.00;40.40;;;;;;;-1.84;100.00;101930.00;5075858;28;20028;-70
2022/03/05 07:49:03;;;;;;;67.43;37.67;;;;;;;-1.78;100.00;101920.09;5075524;28;20471;-68
2022/03/05 07:51:29;;;;;;;68.18;38.38;;;;;;;-1.66;100.00;101916.56;5075776;28;20025;-74
2022/03/05 07:53:54;;;;;;;67.78;36.92;;;;;;;-1.56;100.00;101920.72;5075757;28;20487;-69
2022/03/05 07:56:20;;;;;;;65.88;37.67;;;;;;;-1.49;100.00;101928.13;5075538;28;20024;-72
2022/03/05 07:58:46;;;;;;;67.22;35.97;;;;;;;-1.33;100.00;101930.13;5075433;28;20033;-70
2022/03/05 08:01:12;;;;;;;65.85;36.20;;;;;;;-1.24;100.00;101935.94;5075170;28;20106;-68
2022/03/05 08:03:37;;;;;;;64.85;37.38;;;;;;;-1.11;100.00;101938.56;5075560;28;20029;-68
2022/03/05 08:06:03;;;;;;;61.85;33.72;;;;;;;-0.97;100.00;101946.44;5075654;28;20036;-68
2022/03/05 08:08:28;;;;;;;60.58;34.80;;;;;;;-0.85;100.00;101949.84;5075050;28;20021;-69
2022/03/05 08:10:54;;;;;;;60.50;34.25;;;;;;;-0.65;100.00;101958.13;5075019;28;20107;-68
2022/03/05 08:13:20;;;;;;;61.20;35.10;;;;;;;-0.53;100.00;101956.34;5074918;28;20100;-71
2022/03/05 08:15:45;;;;;;;60.95;33.80;;;;;;;-0.34;100.00;101957.56;5071050;28;20484;-67
2022/03/05 08:18:10;;;;;;;62.17;34.67;;;;;;;-0.15;100.00;101952.78;5075350;28;20024;-68
2022/03/05 08:20:36;;;;;;;58.83;32.42;;;;;;;0.01;100.00;101953.78;5075198;28;20020;-68
2022/03/05 08:23:01;;;;;;;56.53;31.98;;;;;;;0.23;100.00;101953.47;5075079;28;20527;-68
2022/03/05 08:25:28;;;;;;;54.50;31.92;;;;;;;0.30;100.00;101958.25;5075245;28;20052;-69
2022/03/05 08:27:53;;;;;;;57.95;33.05;;;;;;;0.46;100.00;101958.41;5074914;28;20032;-70
2022/03/05 08:30:19;;;;;;;56.80;32.20;;;;;;;0.63;100.00;101969.91;5074807;28;20025;-74
2022/03/05 08:32:45;;;;;;;56.42;33.28;;;;;;;0.85;100.00;101964.31;5075001;28;20487;-69
2022/03/05 08:35:12;;;;;;;55.20;30.90;;;;;;;0.95;100.00;101964.91;5075174;28;20383;-68
2022/03/05 08:37:39;;;;;;;57.20;33.28;;;;;;;0.97;100.00;101960.66;5074826;28;20031;-68
2022/03/05 08:40:06;;;;;;;53.13;31.05;;;;;;;1.06;100.00;101962.94;5075054;28;20032;-68
2022/03/05 08:42:32;;;;;;;55.58;30.20;;;;;;;1.00;100.00;101953.94;5074682;28;20031;-69
2022/03/05 08:44:58;;;;;;;55.28;31.65;;;;;;;1.04;100.00;101960.25;5074447;28;20028;-69
2022/03/05 08:47:24;;;;;;;56.50;31.77;;;;;;;1.25;100.00;101958.00;5074909;28;20475;-69
2022/03/05 08:49:49;;;;;;;56.45;32.20;;;;;;;1.47;100.00;101967.13;5074725;28;20035;-68
2022/03/05 08:52:14;;;;;;;53.80;30.70;;;;;;;1.52;100.00;101965.69;5074538;28;20036;-69
2022/03/05 08:54:40;;;;;;;55.80;31.15;;;;;;;1.65;100.00;101963.00;5073999;28;20497;-68
2022/03/05 08:57:08;;;;;;;56.53;31.98;;;;;;;1.79;100.00;101963.81;5074306;28;20131;-70
2022/03/05 08:59:34;;;;;;;51.75;30.17;;;;;;;2.15;100.00;101968.44;5074351;28;20052;-70
2022/03/05 09:01:59;;;;;;;52.97;30.00;;;;;;;2.44;100.00;101963.09;5074565;28;20029;-71
2022/03/05 09:04:25;;;;;;;51.45;29.50;;;;;;;2.87;100.00;101961.03;5074354;28;20025;-71
2022/03/05 09:06:50;;;;;;;51.50;30.13;;;;;;;3.19;100.00;101964.47;5074768;28;20472;-71
2022/03/05 09:09:15;;;;;;;50.90;30.48;;;;;;;3.44;100.00;101966.66;5065579;28;20028;-70
2022/03/05 09:11:41;;;;;;;50.55;29.85;;;;;;;3.72;99.76;101974.16;5073555;28;20489;-71
2022/03/05 09:14:07;;;;;;;49.83;30.00;;;;;;;3.96;97.34;101966.66;5074281;28;20458;-71
2022/03/05 09:16:35;;;;;;;49.05;28.60;;;;;;;4.21;95.57;101960.00;5073917;28;20028;-71
2022/03/05 09:19:00;;;;;;;49.63;28.88;;;;;;;4.48;93.52;101955.16;5074167;28;20450;-72
2022/03/05 09:21:26;;;;;;;82.95;56.35;;;;;;;4.72;92.67;101957.13;5074180;28;20092;-72
2022/03/05 09:23:51;;;;;;;51.35;32.03;;;;;;;4.80;91.39;101960.09;5073741;28;20111;-72
2022/03/05 09:26:17;;;;;;;47.58;28.67;;;;;;;4.71;90.52;101953.59;5074190;28;20056;-70
2022/03/05 09:28:43;;;;;;;50.78;31.00;;;;;;;4.84;87.77;101954.19;5073944;28;20476;-72
2022/03/05 09:31:09;;;;;;;50.33;29.73;;;;;;;5.12;86.38;101948.44;5073544;28;20467;-72
2022/03/05 09:33:35;;;;;;;50.88;30.27;;;;;;;5.56;85.35;101948.56;5073689;28;20025;-69
2022/03/05 09:36:00;;;;;;;47.90;27.33;;;;;;;5.81;81.98;101950.50;5073972;28;20052;-70
2022/03/05 09:38:26;;;;;;;47.10;27.83;;;;;;;5.97;82.74;101951.13;5073486;28;20487;-72
2022/03/05 09:40:51;;;;;;;46.83;28.20;;;;;;;6.11;80.04;101944.75;5073578;28;20028;-72
2022/03/05 09:43:20;;;;;;;49.60;29.15;;;;;;;6.25;80.84;101951.44;5073624;28;20052;-70
2022/03/05 09:45:46;;;;;;;47.40;28.02;;;;;;;6.29;78.06;101949.81;5069247;28;20025;-69
2022/03/05 09:48:15;;;;;;;47.72;28.65;;;;;;;6.74;77.85;101955.09;5073557;28;20029;-71
2022/03/05 09:50:41;;;;;;;48.72;28.60;;;;;;;7.41;75.47;101954.84;5073587;28;20017;-70
2022/03/05 09:53:06;;;;;;;47.25;28.13;;;;;;;7.68;72.21;101952.25;5073170;28;20383;-72
2022/03/05 09:55:32;;;;;;;45.60;27.10;;;;;;;8.00;70.19;101945.41;5073213;28;20107;-68
2022/03/05 09:57:58;;;;;;;45.78;27.30;;;;;;;8.83;67.68;101946.22;5073385;28;20032;-69
2022/03/05 10:00:23;;;;;;;45.45;27.52;;;;;;;9.69;65.68;101948.56;5073022;28;20491;-68
2022/03/05 10:02:49;;;;;;;44.15;26.40;;;;;;;10.32;60.41;101946.53;5072960;28;20052;-69
2022/03/05 10:05:26;;;;;;;44.53;27.20;;;;;;;10.59;59.40;101953.34;5073269;28;20024;-69
2022/03/05 10:08:24;;;;;;;45.50;27.27;;;;;;;10.90;56.12;101951.34;5068750;28;20479;-68
2022/03/05 10:11:01;;;;;;;44.10;26.30;;;;;;;11.48;49.53;101956.91;5068116;28;20125;-69
2022/03/05 10:13:28;;;;;;;40.85;25.77;;;;;;;11.57;44.92;101959.69;5070342;28;20047;-68
2022/03/05 10:15:57;;;;;;;43.35;26.33;;;;;;;12.13;44.18;101947.41;5073188;28;20017;-69
2022/03/05 10:18:31;;;;;;;43.05;26.50;;;;;;;12.51;43.20;101947.97;5073132;28;20032;-68
2022/03/05 10:20:58;;;;;;;42.88;25.95;;;;;;;13.00;39.88;101952.13;5073048;28;20024;-69
2022/03/05 10:23:24;;;;;;;43.90;26.45;;;;;;;12.94;39.52;101939.66;5072784;28;20485;-69
2022/03/05 10:25:54;;;;;;;42.42;26.05;;;;;;;13.03;40.48;101939.78;5072666;28;20056;-68
2022/03/05 10:28:24;;;;;;;42.45;26.08;;;;;;;13.27;39.28;101946.25;5069472;28;20107;-68
2022/03/05 10:30:54;;;;;;;43.00;27.25;;;;;;;13.62;37.79;101940.44;5068985;28;20103;-68
2022/03/05 10:33:26;;;;;;;41.38;25.77;;;;;;;14.28;38.22;101940.03;5069052;28;20025;-68
2022/03/05 10:35:51;;;;;;;42.67;26.20;;;;;;;14.94;37.32;101943.06;5069313;28;20405;-72
2022/03/05 10:38:17;;;;;;;42.88;27.05;;;;;;;15.27;36.18;101941.38;5068715;28;20036;-72
2022/03/05 10:40:42;;;;;;;43.78;27.88;;;;;;;15.52;35.37;101945.00;5072834;28;20036;-74
2022/03/05 10:43:08;;;;;;;43.72;27.33;;;;;;;15.65;34.36;101937.00;5072827;28;20029;-74
2022/03/05 10:45:54;;;;;;;44.15;27.05;;;;;;;16.10;36.59;101942.34;5072947;28;20379;-73
2022/03/05 10:48:22;;;;;;;42.95;27.02;;;;;;;15.99;34.33;101932.59;5068959;28;20058;-73
2022/03/05 10:50:47;;;;;;;47.80;36.58;;;;;;;16.37;33.53;101939.63;5068468;28;20498;-73
2022/03/05 10:53:12;;;;;;;42.25;28.02;;;;;;;16.72;31.83;101946.66;5072503;28;20119;-74
2022/03/05 10:55:38;;;;;;;44.40;28.75;;;;;;;17.27;32.18;101941.97;5072662;28;20344;-73
2022/03/05 10:58:06;;;;;;;41.03;26.85;;;;;;;17.76;30.84;101949.63;5072629;28;20029;-73
2022/03/05 11:00:32;;;;;;;41.53;26.58;;;;;;;17.96;29.93;101943.25;5072429;28;20047;-73
2022/03/05 11:03:00;;;;;;;42.47;26.33;;;;;;;18.63;30.14;101948.81;5072838;28;20119;-74